createdAt,value
2018-05-14T00:00:42.626Z,8.60
2018-05-14T00:03:10.048Z,12.65
2018-05-14T00:05:37.504Z,11.43
2018-05-14T00:08:04.912Z,7.87
2018-05-14T00:10:32.338Z,10.77
2018-05-14T00:12:59.768Z,11.02
2018-05-14T00:15:27.225Z,8.98
2018-05-14T00:17:54.662Z,12.77
2018-05-14T00:20:22.077Z,8.13
2018-05-14T00:22:49.488Z,9.32
2018-05-14T00:25:16.928Z,5.57
2018-05-14T00:27:44.338Z,9.55
2018-05-14T00:30:11.753Z,9.05
2018-05-14T00:32:39.173Z,32.33
2018-05-14T00:35:06.589Z,8.35
2018-05-14T00:37:34.018Z,9.73
2018-05-14T00:40:01.442Z,10.95
2018-05-14T00:42:28.848Z,9.40
2018-05-14T00:44:56.256Z,9.20
2018-05-14T00:47:23.680Z,13.18
2018-05-14T00:49:51.081Z,8.63
2018-05-14T00:52:18.496Z,6.00
2018-05-14T00:54:57.875Z,9.90
2018-05-14T00:57:25.298Z,10.38
2018-05-14T00:59:52.733Z,11.30
2018-05-14T01:02:20.182Z,10.73
2018-05-14T01:04:47.704Z,10.90
2018-05-14T01:07:15.110Z,8.15
2018-05-14T01:09:42.540Z,12.07
2018-05-14T01:12:10.037Z,8.35
2018-05-14T01:14:37.356Z,10.05
2018-05-14T01:17:04.789Z,12.20
2018-05-14T01:19:32.197Z,8.30
2018-05-14T01:21:59.626Z,9.77
2018-05-14T01:24:27.032Z,5.90
2018-05-14T01:26:54.440Z,7.82
2018-05-14T01:29:21.853Z,8.20
2018-05-14T01:31:49.275Z,9.07
2018-05-14T01:34:16.692Z,11.77
2018-05-14T01:36:44.117Z,11.80
2018-05-14T01:39:11.525Z,9.65
2018-05-14T01:41:38.943Z,7.47
2018-05-14T01:44:06.346Z,9.13
2018-05-14T01:46:33.755Z,6.20
2018-05-14T01:49:01.164Z,5.80
2018-05-14T01:51:28.584Z,16.87
2018-05-14T01:53:55.995Z,8.05
2018-05-14T01:56:23.409Z,7.43
2018-05-14T01:58:50.837Z,9.38
2018-05-14T02:01:18.258Z,6.30
2018-05-14T02:03:45.660Z,7.82
2018-05-14T02:06:13.102Z,8.27
2018-05-14T02:08:40.505Z,6.93
2018-05-14T02:11:07.913Z,4.90
2018-05-14T02:13:35.332Z,6.75
2018-05-14T02:16:02.737Z,8.00
2018-05-14T02:18:30.157Z,7.07
2018-05-14T02:20:57.580Z,6.90
2018-05-14T02:23:25.000Z,6.72
2018-05-14T02:25:52.416Z,8.45
2018-05-14T02:28:19.841Z,8.23
2018-05-14T02:30:47.273Z,9.65
2018-05-14T02:33:14.668Z,6.75
2018-05-14T02:35:42.077Z,8.15
2018-05-14T02:38:09.498Z,7.80
2018-05-14T02:40:36.914Z,10.57
2018-05-14T02:43:04.321Z,8.90
2018-05-14T02:45:31.736Z,11.63
2018-05-14T02:47:59.148Z,7.10
2018-05-14T02:50:26.560Z,9.40
2018-05-14T02:52:53.980Z,12.35
2018-05-14T02:55:21.388Z,6.87
2018-05-14T02:57:48.826Z,7.70
2018-05-14T03:00:16.233Z,9.20
2018-05-14T03:02:43.651Z,9.13
2018-05-14T03:05:11.065Z,8.20
2018-05-14T03:07:38.543Z,6.70
2018-05-14T03:10:05.956Z,6.25
2018-05-14T03:12:33.444Z,7.85
2018-05-14T03:15:00.847Z,12.52
2018-05-14T03:17:28.270Z,6.07
2018-05-14T03:19:55.670Z,7.80
2018-05-14T03:22:23.085Z,6.78
2018-05-14T03:24:50.490Z,9.18
2018-05-14T03:27:17.952Z,6.10
2018-05-14T03:29:45.322Z,10.32
2018-05-14T03:32:12.732Z,7.35
2018-05-14T03:34:40.136Z,9.30
2018-05-14T03:37:07.562Z,9.32
2018-05-14T03:39:34.968Z,9.05
2018-05-14T03:42:02.379Z,5.47
2018-05-14T03:44:29.809Z,6.80
2018-05-14T03:46:57.315Z,8.25
2018-05-14T03:49:24.769Z,8.55
2018-05-14T03:51:52.202Z,9.32
2018-05-14T03:54:19.675Z,9.90
2018-05-14T03:56:47.136Z,7.68
2018-05-14T03:59:26.467Z,7.45
2018-05-14T04:02:15.474Z,15.18
2018-05-14T04:04:54.460Z,6.35
2018-05-14T04:07:21.909Z,7.53
2018-05-14T04:09:49.334Z,7.47
2018-05-14T04:12:17.662Z,7.05
2018-05-14T04:14:45.099Z,7.07
2018-05-14T04:17:12.561Z,14.07
2018-05-14T04:19:39.983Z,11.30
2018-05-14T04:22:07.384Z,11.38
2018-05-14T04:24:34.803Z,7.72
2018-05-14T04:27:02.213Z,10.43
2018-05-14T04:29:29.644Z,8.32
2018-05-14T04:31:57.054Z,27.23
2018-05-14T04:34:24.504Z,12.37
2018-05-14T04:36:51.892Z,6.60
2018-05-14T04:39:19.299Z,8.80
2018-05-14T04:41:46.781Z,9.73
2018-05-14T04:44:14.198Z,7.68
2018-05-14T04:46:41.717Z,9.98
2018-05-14T04:49:09.136Z,12.25
2018-05-14T04:51:36.553Z,10.50
2018-05-14T04:54:03.971Z,8.70
2018-05-14T04:56:31.374Z,8.88
2018-05-14T04:58:58.798Z,13.43
2018-05-14T05:01:26.205Z,5.57
2018-05-14T05:03:53.616Z,6.10
2018-05-14T05:06:21.049Z,8.10
2018-05-14T05:08:48.504Z,11.18
2018-05-14T05:11:15.930Z,10.77
2018-05-14T05:13:43.416Z,9.68
2018-05-14T05:16:10.820Z,7.50
2018-05-14T05:18:38.232Z,6.10
2018-05-14T05:21:05.648Z,5.68
2018-05-14T05:23:33.137Z,7.75
2018-05-14T05:26:00.600Z,8.50
2018-05-14T05:28:28.070Z,20.12
2018-05-14T05:30:55.481Z,6.62
2018-05-14T05:33:22.904Z,11.02
2018-05-14T05:35:50.309Z,7.93
2018-05-14T05:38:17.732Z,7.12
2018-05-14T05:40:45.148Z,7.20
2018-05-14T05:43:12.575Z,9.07
2018-05-14T05:45:39.989Z,9.20
2018-05-14T05:48:07.403Z,11.02
2018-05-14T05:50:34.838Z,10.68
2018-05-14T05:53:02.251Z,13.30
2018-05-14T05:55:29.659Z,9.82
2018-05-14T05:57:57.073Z,11.98
2018-05-14T06:00:24.484Z,9.88
2018-05-14T06:02:51.900Z,11.73
2018-05-14T06:05:19.316Z,8.77
2018-05-14T06:07:46.728Z,10.20
2018-05-14T06:10:14.147Z,12.20
2018-05-14T06:12:41.571Z,13.57
2018-05-14T06:15:08.983Z,8.93
2018-05-14T06:17:36.396Z,10.90
2018-05-14T06:20:03.822Z,7.30
2018-05-14T06:22:31.242Z,14.23
2018-05-14T06:24:58.665Z,11.55
2018-05-14T06:27:26.073Z,9.90
2018-05-14T06:29:53.491Z,13.55
2018-05-14T06:32:20.907Z,11.85
2018-05-14T06:34:48.335Z,16.62
2018-05-14T06:37:15.760Z,14.00
2018-05-14T06:39:43.189Z,12.77
2018-05-14T06:42:10.609Z,14.27
2018-05-14T06:44:38.029Z,17.05
2018-05-14T06:47:05.456Z,13.05
2018-05-14T06:49:32.870Z,10.98
2018-05-14T06:52:00.288Z,10.82
2018-05-14T06:54:27.900Z,11.07
2018-05-14T06:56:55.133Z,14.95
2018-05-14T06:59:22.557Z,17.08
2018-05-14T07:01:49.972Z,19.37
2018-05-14T07:04:17.396Z,13.23
2018-05-14T07:06:44.822Z,15.55
2018-05-14T07:09:12.247Z,22.45
2018-05-14T07:11:39.661Z,22.20
2018-05-14T07:14:07.078Z,18.58
2018-05-14T07:16:34.495Z,26.87
2018-05-14T07:19:01.917Z,24.25
2018-05-14T07:21:29.331Z,21.77
2018-05-14T07:23:56.749Z,20.98
2018-05-14T07:26:24.184Z,21.90
2018-05-14T07:28:51.605Z,10.82
2018-05-14T07:31:19.033Z,21.45
2018-05-14T07:33:46.448Z,21.80
2018-05-14T07:36:13.959Z,27.42
2018-05-14T07:38:41.305Z,20.33
2018-05-14T07:41:08.728Z,26.67
2018-05-14T07:43:36.153Z,26.17
2018-05-14T07:46:03.628Z,30.42
2018-05-14T07:48:30.992Z,24.00
2018-05-14T07:50:58.418Z,29.73
2018-05-14T07:53:25.837Z,27.48
2018-05-14T07:55:53.266Z,30.50
2018-05-14T07:58:20.682Z,31.12
2018-05-14T08:00:48.109Z,30.90
2018-05-14T08:03:15.538Z,29.48
2018-05-14T08:05:42.988Z,30.80
2018-05-14T08:08:10.379Z,56.63
2018-05-14T08:10:37.812Z,59.13
2018-05-14T08:13:05.224Z,37.10
2018-05-14T08:15:32.666Z,19.87
2018-05-14T08:18:00.078Z,35.88
2018-05-14T08:20:27.505Z,31.37
2018-05-14T08:22:54.917Z,24.42
2018-05-14T08:25:22.340Z,31.35
2018-05-14T08:27:49.753Z,37.00
2018-05-14T08:30:17.180Z,49.75
2018-05-14T08:32:44.596Z,32.50
2018-05-14T08:35:12.016Z,49.65
2018-05-14T08:37:39.437Z,28.12
2018-05-14T08:40:06.860Z,40.78
2018-05-14T08:42:34.276Z,37.35
2018-05-14T08:45:01.709Z,33.15
2018-05-14T08:47:29.128Z,36.90
2018-05-14T08:49:56.544Z,47.42
2018-05-14T08:52:23.976Z,47.10
2018-05-14T08:54:51.397Z,56.00
2018-05-14T08:57:18.820Z,64.35
2018-05-14T08:59:46.238Z,74.43
2018-05-14T09:02:13.668Z,78.93
2018-05-14T09:04:41.080Z,71.93
2018-05-14T09:07:08.511Z,69.65
2018-05-14T09:09:35.925Z,76.05
2018-05-14T09:12:03.349Z,65.25
2018-05-14T09:14:30.765Z,72.90
2018-05-14T09:16:58.205Z,74.43
2018-05-14T09:19:25.646Z,62.05
2018-05-14T09:21:53.046Z,62.70
2018-05-14T09:24:20.504Z,77.95
2018-05-14T09:26:47.931Z,78.28
2018-05-14T09:29:15.361Z,53.92
2018-05-14T09:31:42.784Z,74.37
2018-05-14T09:34:10.224Z,72.87
2018-05-14T09:36:37.653Z,69.30
2018-05-14T09:39:05.073Z,51.72
2018-05-14T09:41:32.526Z,60.92
2018-05-14T09:43:59.941Z,58.85
2018-05-14T09:46:27.367Z,67.55
2018-05-14T09:48:54.777Z,83.57
2018-05-14T09:51:22.203Z,88.80
2018-05-14T09:53:49.624Z,76.15
2018-05-14T09:56:17.058Z,80.90
2018-05-14T09:58:44.469Z,90.07
2018-05-14T10:01:11.905Z,100.68
2018-05-14T10:03:39.353Z,97.85
2018-05-14T10:06:06.757Z,114.22
2018-05-14T10:08:34.205Z,92.70
2018-05-14T10:11:01.628Z,86.47
2018-05-14T10:13:29.054Z,89.87
2018-05-14T10:15:56.485Z,85.60
2018-05-14T10:18:23.907Z,77.37
2018-05-14T10:20:51.335Z,77.37
2018-05-14T10:23:18.760Z,71.28
2018-05-14T10:25:46.176Z,99.90
2018-05-14T10:28:13.600Z,77.97
2018-05-14T10:30:41.020Z,74.15
2018-05-14T10:33:08.440Z,80.60
2018-05-14T10:35:35.891Z,88.70
2018-05-14T10:38:03.353Z,94.55
2018-05-14T10:40:30.810Z,96.12
2018-05-14T10:42:58.269Z,84.55
2018-05-14T10:45:25.716Z,103.05
2018-05-14T10:47:53.151Z,107.70
2018-05-14T10:50:20.568Z,71.78
2018-05-14T10:52:48.095Z,88.28
2018-05-14T10:55:15.408Z,98.60
2018-05-14T10:57:42.835Z,97.10
2018-05-14T11:00:10.261Z,77.40
2018-05-14T11:02:37.699Z,100.25
2018-05-14T11:05:05.156Z,118.62
2018-05-14T11:07:32.588Z,109.87
2018-05-14T11:10:00.020Z,109.25
2018-05-14T11:12:27.453Z,112.93
2018-05-14T11:14:54.890Z,111.45
2018-05-14T11:17:22.329Z,126.53
2018-05-14T11:19:49.761Z,139.40
2018-05-14T11:22:17.197Z,122.18
2018-05-14T11:24:44.633Z,128.12
2018-05-14T11:27:12.069Z,112.17
2018-05-14T11:29:39.488Z,99.10
2018-05-14T11:32:06.912Z,80.45
2018-05-14T11:34:34.345Z,109.10
2018-05-14T11:37:01.769Z,124.90
2018-05-14T11:39:29.189Z,109.90
2018-05-14T11:41:56.632Z,102.17
2018-05-14T11:44:24.110Z,130.97
2018-05-14T11:46:51.508Z,153.57
2018-05-14T11:49:18.940Z,121.00
2018-05-14T11:51:46.381Z,145.38
2018-05-14T11:54:13.796Z,134.73
2018-05-14T11:56:41.320Z,151.30
2018-05-14T11:59:08.664Z,132.90
2018-05-14T12:01:36.097Z,109.70
2018-05-14T12:04:03.533Z,124.93
2018-05-14T12:06:30.957Z,101.18
2018-05-14T12:08:58.396Z,168.20
2018-05-14T12:11:25.836Z,181.20
2018-05-14T12:13:53.273Z,159.60
2018-05-14T12:16:20.768Z,131.75
2018-05-14T12:18:48.145Z,173.40
2018-05-14T12:21:15.568Z,114.17
2018-05-14T12:23:43.021Z,127.22
2018-05-14T12:26:10.443Z,112.35
2018-05-14T12:28:37.881Z,106.30
2018-05-14T12:31:05.298Z,115.17
2018-05-14T12:33:32.736Z,95.30
2018-05-14T12:36:00.157Z,107.13
2018-05-14T12:38:27.588Z,143.50
2018-05-14T12:40:55.018Z,109.35
2018-05-14T12:43:22.457Z,99.25
2018-05-14T12:45:49.885Z,143.20
2018-05-14T12:48:17.325Z,142.40
2018-05-14T12:50:44.740Z,153.93
2018-05-14T12:53:12.183Z,114.80
2018-05-14T12:55:39.602Z,125.57
2018-05-14T12:58:07.028Z,98.83
2018-05-14T13:00:34.458Z,155.10
2018-05-14T13:03:01.883Z,125.00
2018-05-14T13:05:29.304Z,147.33
2018-05-14T13:07:56.741Z,165.07
2018-05-14T13:10:24.173Z,125.37
2018-05-14T13:12:51.604Z,106.57
2018-05-14T13:15:19.033Z,122.77
2018-05-14T13:17:46.462Z,105.57
2018-05-14T13:20:13.896Z,106.23
2018-05-14T13:22:41.333Z,109.03
2018-05-14T13:25:08.741Z,94.90
2018-05-14T13:27:36.164Z,99.13
2018-05-14T13:30:03.589Z,84.27
2018-05-14T13:32:31.021Z,120.17
2018-05-14T13:34:58.448Z,135.47
2018-05-14T13:37:25.956Z,122.15
2018-05-14T13:39:53.344Z,118.60
2018-05-14T13:42:20.778Z,114.27
2018-05-14T13:44:48.212Z,134.82
2018-05-14T13:47:15.670Z,85.38
2018-05-14T13:49:43.117Z,106.05
2018-05-14T13:52:10.536Z,86.60
2018-05-14T13:54:37.964Z,104.77
2018-05-14T13:57:05.404Z,92.72
2018-05-14T13:59:32.834Z,93.12
2018-05-14T14:02:00.268Z,114.97
2018-05-14T14:04:27.699Z,105.87
2018-05-14T14:06:55.126Z,88.32
2018-05-14T14:09:22.564Z,101.03
2018-05-14T14:11:49.981Z,91.40
2018-05-14T14:14:17.413Z,68.32
2018-05-14T14:16:44.836Z,86.40
2018-05-14T14:19:12.278Z,66.28
2018-05-14T14:21:39.701Z,72.55
2018-05-14T14:24:07.211Z,97.30
2018-05-14T14:26:34.569Z,122.53
2018-05-14T14:29:01.995Z,69.90
2018-05-14T14:31:29.411Z,99.20
2018-05-14T14:33:56.845Z,102.22
2018-05-14T14:36:24.331Z,80.72
2018-05-14T14:38:51.757Z,93.60
2018-05-14T14:41:19.154Z,87.70
2018-05-14T14:43:46.573Z,66.00
2018-05-14T14:46:14.044Z,70.68
2018-05-14T14:48:41.465Z,66.47
2018-05-14T14:51:08.884Z,60.05
2018-05-14T14:53:36.371Z,55.33
2018-05-14T14:56:03.748Z,72.47
2018-05-14T14:58:31.172Z,56.30
2018-05-14T15:00:58.592Z,60.60
2018-05-14T15:03:26.025Z,53.15
2018-05-14T15:05:53.442Z,63.92
2018-05-14T15:08:20.866Z,64.15
2018-05-14T15:10:48.281Z,59.03
2018-05-14T15:13:15.706Z,64.75
2018-05-14T15:15:43.129Z,60.08
2018-05-14T15:18:10.543Z,83.15
2018-05-14T15:20:37.975Z,70.93
2018-05-14T15:23:05.416Z,62.20
2018-05-14T15:25:32.848Z,60.85
2018-05-14T15:28:00.268Z,59.20
2018-05-14T15:30:27.695Z,49.10
2018-05-14T15:32:55.112Z,57.60
2018-05-14T15:35:22.539Z,57.55
2018-05-14T15:37:49.955Z,64.22
2018-05-14T15:40:28.563Z,78.75
2018-05-14T15:42:56.008Z,58.45
2018-05-14T15:45:23.608Z,51.55
2018-05-14T15:47:51.023Z,51.00
2018-05-14T15:50:18.452Z,43.75
2018-05-14T15:52:45.957Z,65.35
2018-05-14T15:55:14.134Z,60.65
2018-05-14T15:57:41.535Z,59.03
2018-05-14T16:00:08.977Z,61.70
2018-05-14T16:02:36.412Z,48.13
2018-05-14T16:05:03.821Z,42.88
2018-05-14T16:07:31.236Z,46.60
2018-05-14T16:09:58.668Z,56.65
2018-05-14T16:12:26.276Z,44.88
2018-05-14T16:14:53.693Z,65.82
2018-05-14T16:17:21.104Z,54.15
2018-05-14T16:19:48.532Z,46.53
2018-05-14T16:22:16.090Z,50.22
2018-05-14T16:24:43.506Z,50.63
2018-05-14T16:27:10.922Z,52.55
2018-05-14T16:29:38.416Z,56.90
2018-05-14T16:32:05.831Z,37.35
2018-05-14T16:34:33.248Z,43.45
2018-05-14T16:37:00.665Z,52.62
2018-05-14T16:39:28.113Z,44.92
2018-05-14T16:41:55.564Z,42.90
2018-05-14T16:44:22.971Z,46.88
2018-05-14T16:46:50.385Z,32.15
2018-05-14T16:49:17.819Z,38.85
2018-05-14T16:51:45.234Z,40.42
2018-05-14T16:54:12.669Z,62.05
2018-05-14T16:56:40.084Z,41.28
2018-05-14T16:59:07.506Z,47.90
2018-05-14T17:01:34.929Z,38.35
2018-05-14T17:04:02.368Z,48.33
2018-05-14T17:06:29.778Z,41.17
2018-05-14T17:08:57.196Z,35.88
2018-05-14T17:11:24.622Z,53.22
2018-05-14T17:13:52.153Z,51.50
2018-05-14T17:16:19.569Z,37.63
2018-05-14T17:18:46.986Z,28.23
2018-05-14T17:21:15.509Z,43.78
2018-05-14T17:23:44.019Z,61.58
2018-05-14T17:26:11.432Z,42.95
2018-05-14T17:28:38.905Z,47.22
2018-05-14T17:31:06.364Z,35.13
2018-05-14T17:33:33.782Z,29.35
2018-05-14T17:36:01.216Z,29.25
2018-05-14T17:38:28.629Z,31.00
2018-05-14T17:40:56.159Z,23.23
2018-05-14T17:43:23.568Z,32.45
2018-05-14T17:45:51.077Z,36.47
2018-05-14T17:48:18.520Z,24.65
2018-05-14T17:50:45.977Z,29.25
2018-05-14T17:53:13.432Z,34.28
2018-05-14T17:55:40.855Z,27.98
2018-05-14T17:58:08.273Z,19.23
2018-05-14T18:00:35.713Z,20.40
2018-05-14T18:03:03.125Z,24.55
2018-05-14T18:05:30.547Z,26.73
2018-05-14T18:07:58.063Z,28.35
2018-05-14T18:10:25.528Z,31.77
2018-05-14T18:12:52.952Z,23.80
2018-05-14T18:15:20.371Z,27.52
2018-05-14T18:17:47.850Z,21.80
2018-05-14T18:20:20.840Z,29.42
2018-05-14T18:22:48.256Z,28.15
2018-05-14T18:25:21.447Z,21.12
2018-05-14T18:27:54.421Z,24.27
2018-05-14T18:30:27.379Z,20.92
2018-05-14T18:32:54.799Z,28.70
2018-05-14T18:35:22.212Z,24.85
2018-05-14T18:37:49.643Z,26.17
2018-05-14T18:40:17.066Z,23.27
2018-05-14T18:42:44.485Z,29.35
2018-05-14T18:45:11.895Z,20.83
2018-05-14T18:47:39.324Z,17.23
2018-05-14T18:50:06.754Z,31.92
2018-05-14T18:52:34.185Z,18.67
2018-05-14T18:55:01.616Z,23.73
2018-05-14T18:57:29.038Z,23.08
2018-05-14T18:59:56.456Z,28.38
2018-05-14T19:02:23.886Z,21.48
2018-05-14T19:04:51.302Z,24.30
2018-05-14T19:07:24.980Z,24.37
2018-05-14T19:09:52.391Z,22.77
2018-05-14T19:12:19.883Z,22.65
2018-05-14T19:17:57.039Z,22.25
2018-05-14T19:20:24.456Z,29.23
2018-05-14T19:22:57.393Z,31.08
2018-05-14T19:25:24.816Z,19.55
2018-05-14T19:27:57.951Z,21.05
2018-05-14T19:30:30.591Z,17.25
2018-05-14T19:32:58.401Z,18.00
2018-05-14T19:35:31.373Z,17.77
2018-05-14T19:37:59.962Z,20.95
2018-05-14T19:40:33.056Z,11.75
2018-05-14T19:43:00.485Z,17.77
2018-05-14T19:45:27.901Z,17.87
2018-05-14T19:47:55.320Z,11.98
2018-05-14T19:50:22.744Z,14.70
2018-05-14T19:52:50.169Z,16.40
2018-05-14T19:55:17.592Z,14.65
2018-05-14T19:57:45.028Z,13.73
2018-05-14T20:00:12.449Z,19.00
2018-05-14T20:02:39.865Z,25.40
2018-05-14T20:05:07.286Z,14.32
2018-05-14T20:07:34.722Z,11.70
2018-05-14T20:10:02.132Z,15.85
2018-05-14T20:12:29.572Z,15.00
2018-05-14T20:14:57.016Z,16.55
2018-05-14T20:17:24.441Z,19.65
2018-05-14T20:19:51.865Z,16.10
2018-05-14T20:22:19.289Z,19.73
2018-05-14T20:24:46.700Z,13.50
2018-05-14T20:27:14.121Z,19.02
2018-05-14T20:29:41.545Z,22.08
2018-05-14T20:32:08.952Z,17.00
2018-05-14T20:34:36.385Z,11.57
2018-05-14T20:37:03.817Z,12.05
2018-05-14T20:39:31.229Z,12.05
2018-05-14T20:41:58.658Z,16.60
2018-05-14T20:44:26.075Z,19.92
2018-05-14T20:46:53.669Z,12.82
2018-05-14T20:49:21.156Z,12.95
2018-05-14T20:51:48.580Z,10.80
2018-05-14T20:54:16.013Z,15.27
2018-05-14T20:56:43.428Z,14.75
2018-05-14T20:59:10.852Z,21.75
2018-05-14T21:01:38.268Z,17.20
2018-05-14T21:04:05.701Z,15.07
2018-05-14T21:06:33.117Z,18.52
2018-05-14T21:09:00.567Z,13.85
2018-05-14T21:11:27.980Z,14.57
2018-05-14T21:13:55.405Z,11.30
2018-05-14T21:16:22.816Z,13.90
2018-05-14T21:18:50.252Z,11.75
2018-05-14T21:21:17.668Z,17.00
2018-05-14T21:23:45.091Z,18.83
2018-05-14T21:26:12.517Z,15.98
2018-05-14T21:28:39.964Z,15.10
2018-05-14T21:31:07.420Z,14.13
2018-05-14T21:33:34.814Z,16.05
2018-05-14T21:36:02.228Z,10.23
2018-05-14T21:38:29.654Z,11.55
2018-05-14T21:40:57.059Z,9.45
2018-05-14T21:43:24.489Z,13.27
2018-05-14T21:45:51.900Z,11.27
2018-05-14T21:48:19.324Z,10.88
2018-05-14T21:50:46.749Z,11.23
2018-05-14T21:53:14.174Z,14.05
2018-05-14T21:55:41.594Z,13.05
2018-05-14T21:58:09.090Z,15.02
2018-05-14T22:00:36.492Z,12.10
2018-05-14T22:03:03.928Z,13.80
2018-05-14T22:05:31.361Z,11.10
2018-05-14T22:07:58.773Z,13.15
2018-05-14T22:10:26.192Z,13.15
2018-05-14T22:12:53.650Z,20.67
2018-05-14T22:15:21.077Z,13.27
2018-05-14T22:17:48.503Z,19.75
2018-05-14T22:20:15.920Z,15.77
2018-05-14T22:22:43.340Z,12.68
2018-05-14T22:25:10.839Z,17.50
2018-05-14T22:27:39.010Z,14.18
2018-05-14T22:30:06.429Z,12.98
2018-05-14T22:32:33.845Z,20.27
2018-05-14T22:35:01.272Z,15.20
2018-05-14T22:37:28.726Z,14.82
2018-05-14T22:39:56.112Z,16.08
2018-05-14T22:42:23.543Z,16.80
2018-05-14T22:44:50.969Z,12.10
2018-05-14T22:47:18.390Z,16.80
2018-05-14T22:49:45.817Z,15.45
2018-05-14T22:52:13.244Z,15.40
2018-05-14T22:54:40.668Z,11.40
2018-05-14T22:57:08.124Z,13.50
2018-05-14T22:59:35.540Z,13.32
2018-05-14T23:02:02.960Z,11.10
2018-05-14T23:04:30.393Z,12.40
2018-05-14T23:06:57.810Z,12.32
2018-05-14T23:09:25.240Z,16.25
2018-05-14T23:11:52.661Z,14.57
2018-05-14T23:14:20.085Z,19.85
2018-05-14T23:16:47.497Z,17.67
2018-05-14T23:19:14.923Z,13.77
2018-05-14T23:21:42.340Z,16.30
2018-05-14T23:24:09.758Z,14.48
2018-05-14T23:26:37.191Z,16.20
2018-05-14T23:29:04.639Z,12.93
2018-05-14T23:31:32.057Z,21.58
2018-05-14T23:33:59.473Z,10.05
2018-05-14T23:36:26.909Z,13.23
2018-05-14T23:38:54.320Z,11.77
2018-05-14T23:41:21.745Z,15.50
2018-05-14T23:43:49.164Z,15.32
2018-05-14T23:46:16.585Z,12.57
2018-05-14T23:48:44.003Z,12.37
2018-05-14T23:51:11.420Z,9.75
2018-05-14T23:53:38.845Z,14.05
2018-05-14T23:56:06.270Z,8.30
2018-05-14T23:58:33.677Z,8.65
